Husum-Schwesing Airport


Codes: EDXJ/QHU
Name: Husum-Schwesing Airport
City: Husum
Country: Germany
Elevation: 62 ft.
Wikipedia:

Photos at Husum-Schwesing Airport


   Photos courtesy of SpottingLog. You can add your own sightings and photos by signing up for a free trial today.



No photos found.

Weather at Husum-Schwesing Airport


Time (UTC)DescriptionTempratureWindCloud coverageVisibilityPressureHumidity
21-Jun-2024 12:00Broken Clouds18°C9 mph, NE82%10000m1014hPa73%
21-Jun-2024 15:00Overcast Clouds20°C11 mph, E93%10000m1012hPa71%
21-Jun-2024 18:00Light Rain16°C11 mph, E100%6651m1008hPa95%
21-Jun-2024 21:00Light Rain16°C7 mph, E99%6287m1007hPa99%
22-Jun-2024 00:00Light Rain16°C4 mph, W100%1272m1006hPa99%
22-Jun-2024 03:00Overcast Clouds15°C13 mph, W100%5953m1006hPa97%
22-Jun-2024 06:00Light Rain14°C13 mph, W100%10000m1008hPa96%
22-Jun-2024 09:00Light Rain15°C13 mph, W100%10000m1009hPa95%
22-Jun-2024 12:00Light Rain17°C13 mph, W98%10000m1010hPa81%
22-Jun-2024 15:00Scattered Clouds18°C13 mph, NW37%10000m1011hPa71%
22-Jun-2024 18:00Few Clouds16°C9 mph, NW21%10000m1012hPa82%
22-Jun-2024 21:00Few Clouds12°C7 mph, NW11%10000m1013hPa95%
23-Jun-2024 00:00Clear Sky11°C4 mph, NW9%10000m1014hPa95%
23-Jun-2024 03:00Clear Sky11°C2 mph, W0%10000m1015hPa95%
23-Jun-2024 06:00Clear Sky15°C7 mph, NW3%10000m1016hPa79%
23-Jun-2024 09:00Few Clouds18°C9 mph, NW19%10000m1017hPa58%
23-Jun-2024 12:00Broken Clouds19°C11 mph, W52%10000m1018hPa61%
23-Jun-2024 15:00Overcast Clouds18°C11 mph, NW85%10000m1019hPa69%
23-Jun-2024 18:00Broken Clouds16°C9 mph, NW61%10000m1019hPa79%
23-Jun-2024 21:00Clear Sky13°C7 mph, W7%10000m1020hPa95%
24-Jun-2024 00:00Scattered Clouds13°C7 mph, NW32%10000m1020hPa96%
24-Jun-2024 03:00Overcast Clouds12°C4 mph, NW92%10000m1020hPa97%
24-Jun-2024 06:00Scattered Clouds15°C7 mph, NW48%10000m1020hPa77%
24-Jun-2024 09:00Clear Sky18°C9 mph, NW0%10000m1021hPa56%
24-Jun-2024 12:00Clear Sky19°C9 mph, NW0%10000m1021hPa51%
24-Jun-2024 15:00Clear Sky19°C9 mph, NW0%10000m1020hPa53%
24-Jun-2024 18:00Clear Sky17°C7 mph, NW2%10000m1020hPa69%
24-Jun-2024 21:00Clear Sky11°C4 mph, N10%10000m1020hPa86%
25-Jun-2024 00:00Few Clouds10°C4 mph, N16%10000m1020hPa87%
25-Jun-2024 03:00Scattered Clouds9°C2 mph, NE38%10000m1019hPa88%
25-Jun-2024 06:00Few Clouds15°C4 mph, SE21%10000m1019hPa70%
25-Jun-2024 09:00Clear Sky20°C4 mph, SE1%10000m1018hPa63%
25-Jun-2024 12:00Clear Sky23°C9 mph, E1%10000m1017hPa55%
25-Jun-2024 15:00Clear Sky23°C9 mph, E5%10000m1016hPa56%
25-Jun-2024 18:00Clear Sky19°C11 mph, E5%10000m1016hPa81%
25-Jun-2024 21:00Clear Sky15°C9 mph, E7%10000m1015hPa89%
26-Jun-2024 00:00Few Clouds15°C9 mph, E19%10000m1014hPa88%
26-Jun-2024 03:00Clear Sky13°C9 mph, E7%10000m1014hPa95%
26-Jun-2024 06:00Clear Sky18°C11 mph, E10%10000m1013hPa77%
26-Jun-2024 09:00Few Clouds21°C16 mph, E12%10000m1012hPa58%